createdAt,value
2023-05-14T00:01:03.822Z,101437.27
2023-05-14T00:03:37.065Z,101435.02
2023-05-14T00:06:10.948Z,101431.91
2023-05-14T00:08:42.738Z,101430.90
2023-05-14T00:11:14.697Z,101429.72
2023-05-14T00:13:46.432Z,101425.05
2023-05-14T00:16:18.416Z,101421.65
2023-05-14T00:18:50.339Z,101421.39
2023-05-14T00:21:22.131Z,101418.95
2023-05-14T00:23:53.986Z,101413.31
2023-05-14T00:26:25.879Z,101411.66
2023-05-14T00:28:57.746Z,101411.96
2023-05-14T00:31:29.696Z,101414.38
2023-05-14T00:34:01.510Z,101411.13
2023-05-14T00:36:33.521Z,101413.35
2023-05-14T00:39:05.475Z,101411.73
2023-05-14T00:41:37.413Z,101414.27
2023-05-14T00:44:09.323Z,101407.52
2023-05-14T00:46:41.200Z,101403.51
2023-05-14T00:49:13.068Z,101401.77
2023-05-14T00:51:47.006Z,101403.15
2023-05-14T00:54:19.739Z,101405.69
2023-05-14T00:56:51.610Z,101404.06
2023-05-14T00:59:23.422Z,101405.06
2023-05-14T01:01:55.482Z,101405.02
2023-05-14T01:04:27.672Z,101403.08
2023-05-14T01:07:09.757Z,101404.18
2023-05-14T01:09:45.788Z,101396.38
2023-05-14T01:12:22.870Z,101405.20
2023-05-14T01:14:59.031Z,101414.79
2023-05-14T01:17:32.563Z,101409.92
2023-05-14T01:20:05.342Z,101414.92
2023-05-14T01:22:37.741Z,101410.03
2023-05-14T01:25:11.503Z,101400.00
2023-05-14T01:27:47.608Z,101408.92
2023-05-14T01:30:23.392Z,101406.90
2023-05-14T01:32:57.865Z,101407.89
2023-05-14T01:35:30.748Z,101409.25
2023-05-14T01:38:05.265Z,101407.14
2023-05-14T01:40:38.853Z,101389.54
2023-05-14T01:43:11.736Z,101390.08
2023-05-14T01:45:44.872Z,101394.78
2023-05-14T01:48:16.794Z,101392.23
2023-05-14T01:50:48.751Z,101383.84
2023-05-14T01:53:21.012Z,101393.48
2023-05-14T01:55:52.936Z,101390.99
2023-05-14T01:58:24.885Z,101392.55
2023-05-14T02:00:56.771Z,101391.71
2023-05-14T02:03:28.949Z,101392.50
2023-05-14T02:06:00.894Z,101387.67
2023-05-14T02:08:32.719Z,101395.95
2023-05-14T02:11:04.631Z,101392.62
2023-05-14T02:13:37.526Z,101389.06
2023-05-14T02:16:10.532Z,101388.77
2023-05-14T02:18:42.424Z,101380.52
2023-05-14T02:21:14.281Z,101390.38
2023-05-14T02:23:46.049Z,101386.11
2023-05-14T02:26:17.834Z,101385.66
2023-05-14T02:28:49.724Z,101382.45
2023-05-14T02:31:21.545Z,101383.77
2023-05-14T02:33:53.363Z,101383.69
2023-05-14T02:36:25.185Z,101380.87
2023-05-14T02:38:57.029Z,101382.36
2023-05-14T02:41:29.377Z,101380.67
2023-05-14T02:44:01.140Z,101384.20
2023-05-14T02:46:33.515Z,101387.44
2023-05-14T02:49:06.916Z,101396.34
2023-05-14T02:51:38.779Z,101390.45
2023-05-14T02:54:10.572Z,101389.09
2023-05-14T02:56:42.373Z,101388.29
2023-05-14T02:59:14.548Z,101393.67
2023-05-14T03:01:47.258Z,101393.42
2023-05-14T03:04:19.666Z,101385.14
2023-05-14T03:06:51.599Z,101380.67
2023-05-14T03:09:23.344Z,101389.34
2023-05-14T03:11:56.129Z,101387.97
2023-05-14T03:14:28.110Z,101385.36
2023-05-14T03:17:00.178Z,101382.54
2023-05-14T03:19:32.063Z,101381.23
2023-05-14T03:22:04.067Z,101374.27
2023-05-14T03:24:36.470Z,101380.41
2023-05-14T03:27:08.818Z,101383.55
2023-05-14T03:29:40.610Z,101381.09
2023-05-14T03:32:12.759Z,101378.42
2023-05-14T03:34:45.082Z,101369.55
2023-05-14T03:37:16.984Z,101375.42
2023-05-14T03:39:48.850Z,101373.40
2023-05-14T03:42:20.706Z,101368.59
2023-05-14T03:44:52.858Z,101367.73
2023-05-14T03:47:24.661Z,101369.73
2023-05-14T03:49:57.881Z,101364.92
2023-05-14T03:52:29.719Z,101364.67
2023-05-14T03:55:01.461Z,101358.98
2023-05-14T03:57:33.417Z,101345.39
2023-05-14T04:00:05.419Z,101352.63
2023-05-14T04:02:48.551Z,101354.36
2023-05-14T04:05:20.965Z,101356.06
2023-05-14T04:07:53.054Z,101358.05
2023-05-14T04:10:25.615Z,101355.02
2023-05-14T04:12:58.708Z,101357.89
2023-05-14T04:15:35.814Z,101357.54
2023-05-14T04:18:08.167Z,101358.08
2023-05-14T04:20:40.658Z,101362.11
2023-05-14T04:23:12.779Z,101369.14
2023-05-14T04:25:44.805Z,101368.18
2023-05-14T04:28:16.730Z,101368.05
2023-05-14T04:30:48.542Z,101366.14
2023-05-14T04:33:20.440Z,101370.35
2023-05-14T04:35:52.789Z,101366.80
2023-05-14T04:38:24.597Z,101366.70
2023-05-14T04:40:57.056Z,101369.17
2023-05-14T04:43:28.812Z,101363.64
2023-05-14T04:46:00.720Z,101362.20
2023-05-14T04:48:32.815Z,101357.92
2023-05-14T04:51:06.966Z,101355.45
2023-05-14T04:53:39.073Z,101356.99
2023-05-14T04:56:11.118Z,101352.83
2023-05-14T04:58:42.973Z,101355.09
2023-05-14T05:01:15.738Z,101355.02
2023-05-14T05:03:48.138Z,101355.16
2023-05-14T05:06:22.579Z,101351.68
2023-05-14T05:08:54.631Z,101348.45
2023-05-14T05:11:26.394Z,101347.85
2023-05-14T05:13:58.181Z,101344.33
2023-05-14T05:16:31.698Z,101346.33
2023-05-14T05:19:03.753Z,101344.52
2023-05-14T05:21:35.660Z,101340.11
2023-05-14T05:24:08.201Z,101339.71
2023-05-14T05:26:40.094Z,101346.27
2023-05-14T05:29:12.009Z,101342.77
2023-05-14T05:31:44.223Z,101344.45
2023-05-14T05:34:16.432Z,101348.91
2023-05-14T05:36:48.256Z,101344.69
2023-05-14T05:39:20.046Z,101346.05
2023-05-14T05:41:52.013Z,101346.73
2023-05-14T05:44:23.757Z,101343.76
2023-05-14T05:46:57.394Z,101339.81
2023-05-14T05:49:29.536Z,101340.24
2023-05-14T05:52:01.355Z,101336.29
2023-05-14T05:54:33.534Z,101335.48
2023-05-14T05:57:05.572Z,101337.30
2023-05-14T05:59:37.729Z,101337.25
2023-05-14T06:02:09.705Z,101335.90
2023-05-14T06:04:42.065Z,101340.55
2023-05-14T06:07:14.224Z,101332.71
2023-05-14T06:09:46.506Z,101335.72
2023-05-14T06:12:18.419Z,101330.46
2023-05-14T06:14:50.264Z,101333.29
2023-05-14T06:17:22.269Z,101326.60
2023-05-14T06:19:54.230Z,101331.50
2023-05-14T06:22:25.996Z,101328.29
2023-05-14T06:24:57.915Z,101328.38
2023-05-14T06:27:29.801Z,101325.48
2023-05-14T06:30:01.732Z,101321.42
2023-05-14T06:32:33.656Z,101315.22
2023-05-14T06:35:06.650Z,101311.79
2023-05-14T06:37:38.598Z,101311.52
2023-05-14T06:40:13.185Z,101310.02
2023-05-14T06:42:45.029Z,101310.27
2023-05-14T06:45:16.885Z,101306.26
2023-05-14T06:47:49.092Z,101303.82
2023-05-14T06:50:21.905Z,101298.04
2023-05-14T06:52:54.027Z,101293.23
2023-05-14T06:55:26.128Z,101293.89
2023-05-14T06:57:57.908Z,101285.78
2023-05-14T07:00:31.288Z,101288.38
2023-05-14T07:03:03.087Z,101284.36
2023-05-14T07:05:35.080Z,101285.81
2023-05-14T07:08:07.363Z,101286.68
2023-05-14T07:10:40.033Z,101287.52
2023-05-14T07:13:12.918Z,101286.25
2023-05-14T07:15:44.842Z,101279.33
2023-05-14T07:18:16.961Z,101282.84
2023-05-14T07:20:48.881Z,101280.99
2023-05-14T07:23:20.746Z,101276.52
2023-05-14T07:25:53.210Z,101279.38
2023-05-14T07:28:25.062Z,101274.89
2023-05-14T07:30:57.023Z,101273.30
2023-05-14T07:33:29.034Z,101272.70
2023-05-14T07:36:00.842Z,101269.42
2023-05-14T07:38:32.805Z,101267.33
2023-05-14T07:41:05.077Z,101267.80
2023-05-14T07:43:38.514Z,101266.48
2023-05-14T07:46:08.881Z,101263.36
2023-05-14T07:48:40.801Z,101259.11
2023-05-14T07:51:13.055Z,101254.92
2023-05-14T07:53:44.968Z,101257.20
2023-05-14T07:56:16.907Z,101254.48
2023-05-14T07:58:48.742Z,101251.77
2023-05-14T08:01:20.877Z,101251.27
2023-05-14T08:03:52.981Z,101249.95
2023-05-14T08:06:27.645Z,101244.97
2023-05-14T08:08:59.611Z,101244.23
2023-05-14T08:11:31.399Z,101243.17
2023-05-14T08:14:03.373Z,101238.75
2023-05-14T08:16:35.553Z,101238.89
2023-05-14T08:19:07.459Z,101229.86
2023-05-14T08:21:39.932Z,101227.25
2023-05-14T08:24:12.415Z,101226.39
2023-05-14T08:26:44.193Z,101224.48
2023-05-14T08:29:16.656Z,101225.40
2023-05-14T08:31:49.347Z,101218.50
2023-05-14T08:34:21.336Z,101225.24
2023-05-14T08:36:53.155Z,101225.20
2023-05-14T08:39:24.973Z,101216.81
2023-05-14T08:41:58.407Z,101216.53
2023-05-14T08:44:34.988Z,101211.92
2023-05-14T08:47:07.195Z,101205.84
2023-05-14T08:49:45.047Z,101206.84
2023-05-14T08:52:18.946Z,101208.37
2023-05-14T08:54:52.646Z,101206.14
2023-05-14T08:57:24.977Z,101209.77
2023-05-14T08:59:57.386Z,101204.11
2023-05-14T09:02:31.309Z,101204.91
2023-05-14T09:05:04.544Z,101201.70
2023-05-14T09:07:36.569Z,101199.36
2023-05-14T09:10:10.579Z,101199.73
2023-05-14T09:12:42.587Z,101200.53
2023-05-14T09:15:14.759Z,101196.93
2023-05-14T09:17:48.084Z,101197.51
2023-05-14T09:20:20.096Z,101199.68
2023-05-14T09:22:56.756Z,101193.06
2023-05-14T09:25:30.820Z,101190.19
2023-05-14T09:28:02.704Z,101192.06
2023-05-14T09:30:37.155Z,101191.41
2023-05-14T09:33:10.527Z,101188.36
2023-05-14T09:35:43.590Z,101191.83
2023-05-14T09:38:15.609Z,101187.17
2023-05-14T09:40:48.844Z,101190.00
2023-05-14T09:43:20.934Z,101183.36
2023-05-14T09:45:52.834Z,101192.28
2023-05-14T09:48:24.749Z,101191.23
2023-05-14T09:50:56.673Z,101190.36
2023-05-14T09:53:28.586Z,101187.95
2023-05-14T09:56:00.719Z,101186.65
2023-05-14T09:58:32.483Z,101186.55
2023-05-14T10:01:04.746Z,101177.52
2023-05-14T10:03:37.478Z,101180.15
2023-05-14T10:06:10.744Z,101175.10
2023-05-14T10:08:45.346Z,101166.53
2023-05-14T10:11:22.426Z,101171.23
2023-05-14T10:14:00.380Z,101168.73
2023-05-14T10:16:35.519Z,101161.20
2023-05-14T10:19:11.568Z,101165.67
2023-05-14T10:21:46.352Z,101165.55
2023-05-14T10:24:18.950Z,101155.32
2023-05-14T10:26:51.210Z,101154.37
2023-05-14T10:29:23.333Z,101157.48
2023-05-14T10:31:56.489Z,101145.95
2023-05-14T10:34:41.274Z,101152.29
2023-05-14T10:37:15.576Z,101146.55
2023-05-14T10:39:50.578Z,101146.20
2023-05-14T10:42:25.214Z,101147.27
2023-05-14T10:44:59.007Z,101143.88
2023-05-14T10:47:31.268Z,101139.79
2023-05-14T10:50:05.592Z,101134.80
2023-05-14T10:52:37.991Z,101139.34
2023-05-14T10:55:13.477Z,101135.13
2023-05-14T10:57:47.291Z,101127.92
2023-05-14T11:00:20.725Z,101124.92
2023-05-14T11:02:52.673Z,101117.85
2023-05-14T11:05:27.646Z,101107.34
2023-05-14T11:08:00.661Z,101098.81
2023-05-14T11:10:32.515Z,101091.81
2023-05-14T11:13:04.454Z,101089.65
2023-05-14T11:15:36.468Z,101090.15
2023-05-14T11:18:08.348Z,101087.09
2023-05-14T11:20:40.598Z,101087.75
2023-05-14T11:23:12.584Z,101091.13
2023-05-14T11:25:45.487Z,101083.30
2023-05-14T11:28:17.835Z,101071.60
2023-05-14T11:30:50.038Z,101063.06
2023-05-14T11:33:22.332Z,101067.79
2023-05-14T11:35:54.216Z,101065.11
2023-05-14T11:38:26.091Z,101065.27
2023-05-14T11:40:59.317Z,101059.77
2023-05-14T11:43:31.202Z,101051.63
2023-05-14T11:46:03.063Z,101025.66
2023-05-14T11:48:35.061Z,101037.26
2023-05-14T11:51:07.195Z,101036.96
2023-05-14T11:53:39.034Z,101027.61
2023-05-14T11:56:11.465Z,101012.36
2023-05-14T11:58:48.322Z,101022.38
2023-05-14T12:01:20.283Z,101007.98
2023-05-14T12:03:54.347Z,101010.89
2023-05-14T12:06:33.239Z,101007.51
2023-05-14T12:09:07.789Z,100993.29
2023-05-14T12:11:40.258Z,100997.38
2023-05-14T12:14:17.781Z,100993.73
2023-05-14T12:16:49.954Z,100985.91
2023-05-14T12:19:23.591Z,100994.84
2023-05-14T12:21:53.984Z,100990.10
2023-05-14T12:24:28.400Z,100985.81
2023-05-14T12:27:04.270Z,100989.79
2023-05-14T12:29:39.881Z,100990.45
2023-05-14T12:32:12.329Z,100983.59
2023-05-14T12:34:44.134Z,100971.39
2023-05-14T12:37:15.960Z,100966.46
2023-05-14T12:39:47.811Z,100967.95
2023-05-14T12:42:20.232Z,100973.81
2023-05-14T12:44:52.567Z,100970.02
2023-05-14T12:47:24.636Z,100956.84
2023-05-14T12:49:56.556Z,100955.42
2023-05-14T12:52:37.866Z,100957.70
2023-05-14T12:55:12.270Z,100960.48
2023-05-14T12:57:44.426Z,100961.91
2023-05-14T13:00:17.451Z,100956.16
2023-05-14T13:02:49.285Z,100945.80
2023-05-14T13:05:21.478Z,100942.89
2023-05-14T13:07:55.130Z,100941.72
2023-05-14T13:10:26.866Z,100938.42
2023-05-14T13:12:58.762Z,100940.02
2023-05-14T13:15:31.753Z,100937.55
2023-05-14T13:18:03.817Z,100944.03
2023-05-14T13:20:35.833Z,100940.27
2023-05-14T13:23:07.616Z,100931.73
2023-05-14T13:25:39.459Z,100931.25
2023-05-14T13:28:11.313Z,100933.04
2023-05-14T13:30:43.316Z,100932.48
2023-05-14T13:33:15.117Z,100933.04
2023-05-14T13:35:46.971Z,100934.91
2023-05-14T13:38:18.744Z,100926.10
2023-05-14T13:40:50.580Z,100918.34
2023-05-14T13:43:22.420Z,100917.41
2023-05-14T13:45:54.284Z,100920.46
2023-05-14T13:48:27.127Z,100919.58
2023-05-14T13:50:59.291Z,100918.05
2023-05-14T13:53:31.615Z,100915.24
2023-05-14T13:56:03.509Z,100916.23
2023-05-14T13:58:35.476Z,100912.75
2023-05-14T14:01:07.778Z,100913.87
2023-05-14T14:03:39.806Z,100910.91
2023-05-14T14:06:11.914Z,100903.25
2023-05-14T14:08:43.846Z,100897.08
2023-05-14T14:11:16.930Z,100893.71
2023-05-14T14:13:48.751Z,100891.41
2023-05-14T14:16:20.959Z,100890.16
2023-05-14T14:18:52.936Z,100878.46
2023-05-14T14:21:25.035Z,100867.17
2023-05-14T14:23:56.910Z,100864.15
2023-05-14T14:26:29.345Z,100869.89
2023-05-14T14:29:01.369Z,100867.98
2023-05-14T14:31:34.602Z,100860.52
2023-05-14T14:34:06.483Z,100857.81
2023-05-14T14:36:38.239Z,100852.16
2023-05-14T14:39:10.778Z,100845.90
2023-05-14T14:41:42.645Z,100843.20
2023-05-14T14:44:15.022Z,100831.77
2023-05-14T14:46:46.971Z,100832.03
2023-05-14T14:49:18.944Z,100830.73
2023-05-14T14:51:50.826Z,100829.86
2023-05-14T14:54:22.679Z,100832.23
2023-05-14T14:56:54.927Z,100831.39
2023-05-14T14:59:26.862Z,100829.98
2023-05-14T15:01:58.675Z,100822.38
2023-05-14T15:04:34.149Z,100825.02
2023-05-14T15:07:06.465Z,100823.48
2023-05-14T15:09:38.791Z,100820.83
2023-05-14T15:12:11.311Z,100818.52
2023-05-14T15:14:43.760Z,100818.86
2023-05-14T15:17:15.751Z,100817.17
2023-05-14T15:19:47.629Z,100814.95
2023-05-14T15:22:19.456Z,100816.17
2023-05-14T15:24:52.333Z,100811.41
2023-05-14T15:27:24.178Z,100815.35
2023-05-14T15:29:56.115Z,100806.70
2023-05-14T15:32:28.541Z,100804.27
2023-05-14T15:35:01.196Z,100799.48
2023-05-14T15:37:38.819Z,100800.38
2023-05-14T15:40:12.273Z,100799.39
2023-05-14T15:42:44.989Z,100797.59
2023-05-14T15:45:17.046Z,100795.92
2023-05-14T15:47:48.971Z,100792.39
2023-05-14T15:50:20.877Z,100794.21
2023-05-14T15:52:52.976Z,100797.45
2023-05-14T15:55:25.033Z,100798.78
2023-05-14T15:57:56.997Z,100789.06
2023-05-14T16:00:28.877Z,100786.30
2023-05-14T16:03:00.860Z,100780.08
2023-05-14T16:05:32.798Z,100781.95
2023-05-14T16:08:04.601Z,100783.70
2023-05-14T16:10:36.390Z,100782.52
2023-05-14T16:13:08.069Z,100780.20
2023-05-14T16:15:39.833Z,100776.97
2023-05-14T16:18:11.811Z,100772.70
2023-05-14T16:20:43.633Z,100774.55
2023-05-14T16:23:15.443Z,100778.71
2023-05-14T16:25:47.454Z,100782.87
2023-05-14T16:28:19.366Z,100769.07
2023-05-14T16:30:51.051Z,100762.66
2023-05-14T16:33:22.877Z,100754.66
2023-05-14T16:35:54.827Z,100751.46
2023-05-14T16:38:26.641Z,100746.77
2023-05-14T16:40:58.584Z,100753.17
2023-05-14T16:43:30.274Z,100750.30
2023-05-14T16:46:02.064Z,100750.77
2023-05-14T16:48:33.816Z,100749.23
2023-05-14T16:51:05.678Z,100747.77
2023-05-14T16:53:37.394Z,100749.88
2023-05-14T16:56:11.088Z,100746.18
2023-05-14T16:58:43.054Z,100744.63
2023-05-14T17:01:14.830Z,100743.66
2023-05-14T17:03:46.864Z,100742.47
2023-05-14T17:06:18.829Z,100745.52
2023-05-14T17:08:50.721Z,100741.98
2023-05-14T17:11:24.197Z,100746.05
2023-05-14T17:14:03.964Z,100742.86
2023-05-14T17:16:35.969Z,100736.98
2023-05-14T17:19:06.773Z,100732.80
2023-05-14T17:21:38.568Z,100734.49
2023-05-14T17:24:10.687Z,100736.77
2023-05-14T17:26:42.610Z,100739.72
2023-05-14T17:29:14.461Z,100746.60
2023-05-14T17:31:46.266Z,100745.38
2023-05-14T17:34:18.941Z,100747.43
2023-05-14T17:36:50.847Z,100750.98
2023-05-14T17:39:22.612Z,100747.09
2023-05-14T17:41:54.380Z,100747.05
2023-05-14T17:44:26.251Z,100736.83
2023-05-14T17:46:58.118Z,100742.33
2023-05-14T17:49:29.980Z,100738.64
2023-05-14T17:52:01.920Z,100739.42
2023-05-14T17:54:33.737Z,100738.56
2023-05-14T17:57:06.054Z,100735.58
2023-05-14T17:59:37.883Z,100735.31
2023-05-14T18:02:09.944Z,100735.27
2023-05-14T18:04:41.846Z,100735.61
2023-05-14T18:07:13.684Z,100730.48
2023-05-14T18:09:45.557Z,100727.30
2023-05-14T18:12:17.363Z,100728.43
2023-05-14T18:14:49.248Z,100725.84
2023-05-14T18:17:21.109Z,100728.67
2023-05-14T18:19:53.033Z,100729.15
2023-05-14T18:22:28.176Z,100732.64
2023-05-14T18:25:02.453Z,100731.80
2023-05-14T18:27:34.206Z,100735.70
2023-05-14T18:30:07.439Z,100738.89
2023-05-14T18:32:39.389Z,100740.30
2023-05-14T18:35:14.472Z,100735.15
2023-05-14T18:37:46.250Z,100738.71
2023-05-14T18:40:18.974Z,100737.76
2023-05-14T18:42:51.003Z,100733.84
2023-05-14T18:45:24.430Z,100740.81
2023-05-14T18:47:56.586Z,100734.93
2023-05-14T18:50:29.010Z,100736.73
2023-05-14T18:53:01.079Z,100738.03
2023-05-14T18:55:33.109Z,100740.42
2023-05-14T18:58:04.994Z,100742.20
2023-05-14T19:00:37.040Z,100741.55
2023-05-14T19:03:09.041Z,100743.73
2023-05-14T19:05:41.417Z,100743.40
2023-05-14T19:08:15.675Z,100736.45
2023-05-14T19:10:47.664Z,100736.48
2023-05-14T19:13:19.534Z,100738.25
2023-05-14T19:15:51.696Z,100737.38
2023-05-14T19:18:23.578Z,100733.76
2023-05-14T19:20:57.002Z,100730.61
2023-05-14T19:23:31.182Z,100724.40
2023-05-14T19:26:04.092Z,100721.34
2023-05-14T19:28:38.071Z,100714.79
2023-05-14T19:31:10.038Z,100717.48
2023-05-14T19:33:42.037Z,100715.74
2023-05-14T19:36:14.018Z,100719.38
2023-05-14T19:38:46.398Z,100714.11
2023-05-14T19:41:18.164Z,100713.94
2023-05-14T19:43:50.103Z,100712.31
2023-05-14T19:46:22.095Z,100711.95
2023-05-14T19:48:53.955Z,100711.17
2023-05-14T19:51:26.350Z,100711.96
2023-05-14T19:53:58.530Z,100710.63
2023-05-14T19:56:30.467Z,100713.52
2023-05-14T19:59:02.317Z,100710.10
2023-05-14T20:01:35.887Z,100707.91
2023-05-14T20:04:07.356Z,100705.50
2023-05-14T20:06:40.359Z,100701.58
2023-05-14T20:09:12.924Z,100706.91
2023-05-14T20:11:44.694Z,100705.86
2023-05-14T20:14:16.538Z,100698.41
2023-05-14T20:16:49.127Z,100702.71
2023-05-14T20:19:22.518Z,100697.11
2023-05-14T20:21:54.470Z,100695.36
2023-05-14T20:24:26.410Z,100686.08
2023-05-14T20:26:58.174Z,100691.98
2023-05-14T20:29:30.024Z,100691.37
2023-05-14T20:32:01.791Z,100690.81
2023-05-14T20:34:33.528Z,100688.03
2023-05-14T20:37:06.811Z,100683.18
2023-05-14T20:39:38.734Z,100679.34
2023-05-14T20:42:10.767Z,100681.88
2023-05-14T20:44:42.660Z,100674.75
2023-05-14T20:47:17.857Z,100674.62
2023-05-14T20:49:49.770Z,100666.98
2023-05-14T20:52:22.315Z,100664.80
2023-05-14T20:54:54.132Z,100661.34
2023-05-14T20:57:26.146Z,100657.30
2023-05-14T20:59:57.938Z,100652.35
2023-05-14T21:02:30.070Z,100647.67
2023-05-14T21:05:03.125Z,100651.66
2023-05-14T21:07:36.531Z,100651.09
2023-05-14T21:10:10.207Z,100647.42
2023-05-14T21:12:42.812Z,100644.64
2023-05-14T21:15:16.572Z,100641.50
2023-05-14T21:17:48.415Z,100639.75
2023-05-14T21:20:20.567Z,100633.30
2023-05-14T21:22:52.385Z,100636.05
2023-05-14T21:25:25.115Z,100637.42
2023-05-14T21:27:57.211Z,100630.55
2023-05-14T21:30:28.991Z,100632.50
2023-05-14T21:33:00.871Z,100632.86
2023-05-14T21:35:32.824Z,100635.31
2023-05-14T21:38:04.767Z,100631.65
2023-05-14T21:40:36.785Z,100632.83
2023-05-14T21:43:08.743Z,100631.80
2023-05-14T21:45:40.699Z,100627.76
2023-05-14T21:48:12.483Z,100620.04
2023-05-14T21:50:44.325Z,100618.30
2023-05-14T21:53:16.339Z,100625.04
2023-05-14T21:55:49.987Z,100621.48
2023-05-14T21:58:21.936Z,100618.48
2023-05-14T22:00:53.982Z,100616.59
2023-05-14T22:03:25.889Z,100611.80
2023-05-14T22:05:57.941Z,100606.29
2023-05-14T22:08:31.213Z,100609.33
2023-05-14T22:11:03.720Z,100606.20
2023-05-14T22:13:37.671Z,100603.63
2023-05-14T22:16:13.758Z,100599.76
2023-05-14T22:18:47.279Z,100600.47
2023-05-14T22:21:19.174Z,100600.67
2023-05-14T22:23:51.105Z,100586.77
2023-05-14T22:26:22.917Z,100594.79
2023-05-14T22:28:55.601Z,100595.77
2023-05-14T22:31:27.449Z,100589.48
2023-05-14T22:33:59.291Z,100586.67
2023-05-14T22:36:31.089Z,100583.77
2023-05-14T22:39:03.006Z,100573.38
2023-05-14T22:41:34.922Z,100569.91
2023-05-14T22:44:06.745Z,100567.50
2023-05-14T22:46:38.591Z,100568.66
2023-05-14T22:49:10.374Z,100566.27
2023-05-14T22:51:42.419Z,100553.26
2023-05-14T22:54:14.155Z,100561.19
2023-05-14T22:56:46.506Z,100556.19
2023-05-14T22:59:18.359Z,100553.24
2023-05-14T23:01:50.161Z,100552.08
2023-05-14T23:04:22.352Z,100552.04
2023-05-14T23:06:54.220Z,100544.27
2023-05-14T23:09:26.146Z,100542.16
2023-05-14T23:11:57.938Z,100539.48
2023-05-14T23:14:29.706Z,100534.48
2023-05-14T23:17:01.783Z,100533.23
2023-05-14T23:19:33.552Z,100532.61
2023-05-14T23:22:05.561Z,100517.88
2023-05-14T23:24:37.473Z,100516.52
2023-05-14T23:27:09.647Z,100510.41
2023-05-14T23:29:41.425Z,100508.80
2023-05-14T23:32:13.324Z,100506.40
2023-05-14T23:34:45.223Z,100505.36
2023-05-14T23:37:17.036Z,100499.31
2023-05-14T23:39:48.872Z,100497.23
2023-05-14T23:42:20.721Z,100493.38
2023-05-14T23:44:52.568Z,100489.75
2023-05-14T23:47:24.403Z,100489.88
2023-05-14T23:49:56.410Z,100485.15
2023-05-14T23:52:28.248Z,100481.14
2023-05-14T23:55:00.160Z,100476.98
2023-05-14T23:57:32.074Z,100473.07
